sensor_id;sensor_type;location;lat;lon;timestamp;temperature;humidity
314;DHT22;143;51.634;7.112;2022-10-24T00:02:21;16.20;1.00
314;DHT22;143;51.634;7.112;2022-10-24T00:04:47;16.30;1.00
314;DHT22;143;51.634;7.112;2022-10-24T00:07:13;16.30;1.00
314;DHT22;143;51.634;7.112;2022-10-24T00:09:38;16.30;1.00
314;DHT22;143;51.634;7.112;2022-10-24T00:12:05;16.30;1.00
314;DHT22;143;51.634;7.112;2022-10-24T00:14:32;16.40;1.00
314;DHT22;143;51.634;7.112;2022-10-24T00:16:58;16.40;1.00
314;DHT22;143;51.634;7.112;2022-10-24T00:19:24;16.40;1.00
314;DHT22;143;51.634;7.112;2022-10-24T00:21:49;16.40;1.00
314;DHT22;143;51.634;7.112;2022-10-24T00:24:15;16.40;1.00
314;DHT22;143;51.634;7.112;2022-10-24T00:26:41;16.40;1.00
314;DHT22;143;51.634;7.112;2022-10-24T00:29:07;16.40;1.00
314;DHT22;143;51.634;7.112;2022-10-24T00:31:33;16.40;1.00
314;DHT22;143;51.634;7.112;2022-10-24T00:34:00;16.40;1.00
314;DHT22;143;51.634;7.112;2022-10-24T00:36:26;16.40;1.00
314;DHT22;143;51.634;7.112;2022-10-24T00:38:52;16.40;1.00
314;DHT22;143;51.634;7.112;2022-10-24T00:41:24;16.40;1.00
314;DHT22;143;51.634;7.112;2022-10-24T00:44:11;16.40;1.00
314;DHT22;143;51.634;7.112;2022-10-24T00:46:36;16.40;1.00
314;DHT22;143;51.634;7.112;2022-10-24T00:49:02;16.50;1.00
314;DHT22;143;51.634;7.112;2022-10-24T00:51:32;16.50;1.00
314;DHT22;143;51.634;7.112;2022-10-24T00:54:05;16.50;1.00
314;DHT22;143;51.634;7.112;2022-10-24T00:56:40;16.40;1.00
314;DHT22;143;51.634;7.112;2022-10-24T00:59:07;16.50;1.00
314;DHT22;143;51.634;7.112;2022-10-24T01:01:35;16.40;1.00
314;DHT22;143;51.634;7.112;2022-10-24T01:04:02;16.40;1.00
314;DHT22;143;51.634;7.112;2022-10-24T01:06:44;16.40;1.00
314;DHT22;143;51.634;7.112;2022-10-24T01:15:17;16.40;1.00
314;DHT22;143;51.634;7.112;2022-10-24T01:18:02;16.40;1.00
314;DHT22;143;51.634;7.112;2022-10-24T01:20:50;16.40;1.00
314;DHT22;143;51.634;7.112;2022-10-24T01:23:44;16.40;1.00
314;DHT22;143;51.634;7.112;2022-10-24T01:26:26;16.40;1.00
314;DHT22;143;51.634;7.112;2022-10-24T01:31:59;16.40;1.00
314;DHT22;143;51.634;7.112;2022-10-24T01:34:35;16.50;1.00
314;DHT22;143;51.634;7.112;2022-10-24T01:37:18;16.60;1.00
314;DHT22;143;51.634;7.112;2022-10-24T01:39:49;16.70;1.00
314;DHT22;143;51.634;7.112;2022-10-24T01:42:16;16.80;1.00
314;DHT22;143;51.634;7.112;2022-10-24T01:44:47;16.90;1.00
314;DHT22;143;51.634;7.112;2022-10-24T01:47:23;17.00;1.00
314;DHT22;143;51.634;7.112;2022-10-24T01:50:10;17.10;1.00
314;DHT22;143;51.634;7.112;2022-10-24T01:52:40;17.20;1.00
314;DHT22;143;51.634;7.112;2022-10-24T01:55:06;17.30;1.00
314;DHT22;143;51.634;7.112;2022-10-24T01:57:33;17.40;1.00
314;DHT22;143;51.634;7.112;2022-10-24T01:59:59;17.40;1.00
314;DHT22;143;51.634;7.112;2022-10-24T02:02:42;17.50;1.00
314;DHT22;143;51.634;7.112;2022-10-24T02:05:26;17.50;1.00
314;DHT22;143;51.634;7.112;2022-10-24T02:07:58;17.50;1.00
314;DHT22;143;51.634;7.112;2022-10-24T02:10:28;17.50;1.00
314;DHT22;143;51.634;7.112;2022-10-24T02:13:01;17.60;1.00
314;DHT22;143;51.634;7.112;2022-10-24T02:15:32;17.50;1.00
314;DHT22;143;51.634;7.112;2022-10-24T02:17:59;17.50;1.00
314;DHT22;143;51.634;7.112;2022-10-24T02:20:35;17.50;1.00
314;DHT22;143;51.634;7.112;2022-10-24T02:25:42;17.50;1.00
314;DHT22;143;51.634;7.112;2022-10-24T02:28:29;17.50;1.00
314;DHT22;143;51.634;7.112;2022-10-24T02:31:03;17.50;1.00
314;DHT22;143;51.634;7.112;2022-10-24T02:33:31;17.40;1.00
314;DHT22;143;51.634;7.112;2022-10-24T02:35:59;17.40;1.00
314;DHT22;143;51.634;7.112;2022-10-24T02:38:38;17.40;1.00
314;DHT22;143;51.634;7.112;2022-10-24T02:41:08;17.30;1.00
314;DHT22;143;51.634;7.112;2022-10-24T02:43:36;17.30;1.00
314;DHT22;143;51.634;7.112;2022-10-24T02:46:03;17.30;1.00
314;DHT22;143;51.634;7.112;2022-10-24T02:48:34;17.30;1.00
314;DHT22;143;51.634;7.112;2022-10-24T02:51:01;17.30;1.00
314;DHT22;143;51.634;7.112;2022-10-24T02:53:27;17.40;99.90
314;DHT22;143;51.634;7.112;2022-10-24T02:55:53;17.40;99.90
314;DHT22;143;51.634;7.112;2022-10-24T02:58:19;17.50;99.90
314;DHT22;143;51.634;7.112;2022-10-24T03:00:45;17.50;99.90
314;DHT22;143;51.634;7.112;2022-10-24T03:03:11;17.50;99.90
314;DHT22;143;51.634;7.112;2022-10-24T03:05:36;17.50;99.90
314;DHT22;143;51.634;7.112;2022-10-24T03:08:02;17.60;99.90
314;DHT22;143;51.634;7.112;2022-10-24T03:10:28;17.60;99.90
314;DHT22;143;51.634;7.112;2022-10-24T03:12:54;17.60;99.90
314;DHT22;143;51.634;7.112;2022-10-24T03:15:19;17.60;99.90
314;DHT22;143;51.634;7.112;2022-10-24T03:17:45;17.60;99.90
314;DHT22;143;51.634;7.112;2022-10-24T03:20:13;17.60;99.90
314;DHT22;143;51.634;7.112;2022-10-24T03:22:39;17.60;99.90
314;DHT22;143;51.634;7.112;2022-10-24T03:25:05;17.60;99.90
314;DHT22;143;51.634;7.112;2022-10-24T03:27:32;17.60;99.90
314;DHT22;143;51.634;7.112;2022-10-24T03:29:59;17.60;99.90
314;DHT22;143;51.634;7.112;2022-10-24T03:32:25;17.60;99.90
314;DHT22;143;51.634;7.112;2022-10-24T03:34:50;17.60;99.90
314;DHT22;143;51.634;7.112;2022-10-24T03:37:16;17.60;99.90
314;DHT22;143;51.634;7.112;2022-10-24T03:39:42;17.60;99.90
314;DHT22;143;51.634;7.112;2022-10-24T03:42:08;17.60;99.90
314;DHT22;143;51.634;7.112;2022-10-24T03:44:34;17.60;99.90
314;DHT22;143;51.634;7.112;2022-10-24T03:46:59;17.60;99.90
314;DHT22;143;51.634;7.112;2022-10-24T03:49:25;17.50;99.90
314;DHT22;143;51.634;7.112;2022-10-24T03:51:50;17.60;99.90
314;DHT22;143;51.634;7.112;2022-10-24T03:54:16;17.60;99.90
314;DHT22;143;51.634;7.112;2022-10-24T03:56:43;17.60;99.90
314;DHT22;143;51.634;7.112;2022-10-24T03:59:09;17.60;99.90
314;DHT22;143;51.634;7.112;2022-10-24T04:01:35;17.60;99.90
314;DHT22;143;51.634;7.112;2022-10-24T04:04:01;17.60;99.90
314;DHT22;143;51.634;7.112;2022-10-24T04:06:27;17.60;99.90
314;DHT22;143;51.634;7.112;2022-10-24T04:08:53;17.60;99.90
314;DHT22;143;51.634;7.112;2022-10-24T04:11:18;17.60;99.90
314;DHT22;143;51.634;7.112;2022-10-24T04:13:44;17.50;99.90
314;DHT22;143;51.634;7.112;2022-10-24T04:16:10;17.50;99.90
314;DHT22;143;51.634;7.112;2022-10-24T04:18:35;17.50;99.90
314;DHT22;143;51.634;7.112;2022-10-24T04:21:01;17.50;99.90
314;DHT22;143;51.634;7.112;2022-10-24T04:23:28;17.50;99.90
314;DHT22;143;51.634;7.112;2022-10-24T04:25:59;17.50;99.90
314;DHT22;143;51.634;7.112;2022-10-24T04:28:24;17.50;99.90
314;DHT22;143;51.634;7.112;2022-10-24T04:30:56;17.50;99.90
314;DHT22;143;51.634;7.112;2022-10-24T04:33:22;17.50;99.90
314;DHT22;143;51.634;7.112;2022-10-24T04:35:49;17.40;99.90
314;DHT22;143;51.634;7.112;2022-10-24T04:38:15;17.40;99.90
314;DHT22;143;51.634;7.112;2022-10-24T04:40:47;17.40;99.90
314;DHT22;143;51.634;7.112;2022-10-24T04:43:13;17.40;99.90
314;DHT22;143;51.634;7.112;2022-10-24T04:45:39;17.30;99.90
314;DHT22;143;51.634;7.112;2022-10-24T04:48:05;17.30;99.90
314;DHT22;143;51.634;7.112;2022-10-24T04:50:30;17.30;99.90
314;DHT22;143;51.634;7.112;2022-10-24T04:52:56;17.20;99.90
314;DHT22;143;51.634;7.112;2022-10-24T04:55:22;17.20;99.90
314;DHT22;143;51.634;7.112;2022-10-24T04:57:47;17.10;99.90
314;DHT22;143;51.634;7.112;2022-10-24T05:00:13;17.10;99.90
314;DHT22;143;51.634;7.112;2022-10-24T05:02:39;17.10;99.90
314;DHT22;143;51.634;7.112;2022-10-24T05:05:05;17.10;99.90
314;DHT22;143;51.634;7.112;2022-10-24T05:07:31;17.10;99.90
314;DHT22;143;51.634;7.112;2022-10-24T05:09:57;17.10;99.90
314;DHT22;143;51.634;7.112;2022-10-24T05:12:22;17.10;99.90
314;DHT22;143;51.634;7.112;2022-10-24T05:14:48;17.10;99.90
314;DHT22;143;51.634;7.112;2022-10-24T05:17:14;17.10;99.90
314;DHT22;143;51.634;7.112;2022-10-24T05:19:40;17.10;99.90
314;DHT22;143;51.634;7.112;2022-10-24T05:22:05;17.10;99.90
314;DHT22;143;51.634;7.112;2022-10-24T05:24:31;17.10;99.90
314;DHT22;143;51.634;7.112;2022-10-24T05:26:57;17.10;99.90
314;DHT22;143;51.634;7.112;2022-10-24T05:29:23;17.10;99.90
314;DHT22;143;51.634;7.112;2022-10-24T05:31:50;17.10;99.90
314;DHT22;143;51.634;7.112;2022-10-24T05:34:15;17.10;99.90
314;DHT22;143;51.634;7.112;2022-10-24T05:36:41;17.10;99.90
314;DHT22;143;51.634;7.112;2022-10-24T05:39:07;17.10;99.90
314;DHT22;143;51.634;7.112;2022-10-24T05:41:33;17.10;99.90
314;DHT22;143;51.634;7.112;2022-10-24T05:43:58;17.10;99.90
314;DHT22;143;51.634;7.112;2022-10-24T05:46:24;17.10;99.90
314;DHT22;143;51.634;7.112;2022-10-24T05:48:50;17.20;99.90
314;DHT22;143;51.634;7.112;2022-10-24T05:51:16;17.20;99.90
314;DHT22;143;51.634;7.112;2022-10-24T05:53:41;17.20;99.90
314;DHT22;143;51.634;7.112;2022-10-24T05:56:07;17.10;99.90
314;DHT22;143;51.634;7.112;2022-10-24T05:58:33;17.10;99.90
314;DHT22;143;51.634;7.112;2022-10-24T06:01:00;17.10;99.90
314;DHT22;143;51.634;7.112;2022-10-24T06:03:26;17.10;99.90
314;DHT22;143;51.634;7.112;2022-10-24T06:05:52;17.00;99.90
314;DHT22;143;51.634;7.112;2022-10-24T06:08:17;17.00;99.90
314;DHT22;143;51.634;7.112;2022-10-24T06:10:47;17.00;99.90
314;DHT22;143;51.634;7.112;2022-10-24T06:13:13;17.00;99.90
314;DHT22;143;51.634;7.112;2022-10-24T06:15:41;17.00;99.90
314;DHT22;143;51.634;7.112;2022-10-24T06:18:07;16.90;99.90
314;DHT22;143;51.634;7.112;2022-10-24T06:20:32;16.90;99.90
314;DHT22;143;51.634;7.112;2022-10-24T06:22:58;16.90;99.90
314;DHT22;143;51.634;7.112;2022-10-24T06:25:24;16.80;99.90
314;DHT22;143;51.634;7.112;2022-10-24T06:27:50;16.80;99.90
314;DHT22;143;51.634;7.112;2022-10-24T06:30:17;16.80;99.90
314;DHT22;143;51.634;7.112;2022-10-24T06:32:43;16.80;99.90
314;DHT22;143;51.634;7.112;2022-10-24T06:35:08;16.80;99.90
314;DHT22;143;51.634;7.112;2022-10-24T06:37:38;16.70;99.90
314;DHT22;143;51.634;7.112;2022-10-24T06:40:04;16.70;99.90
314;DHT22;143;51.634;7.112;2022-10-24T06:42:30;16.70;99.90
314;DHT22;143;51.634;7.112;2022-10-24T06:44:55;16.70;99.90
314;DHT22;143;51.634;7.112;2022-10-24T06:47:21;16.70;99.90
314;DHT22;143;51.634;7.112;2022-10-24T06:49:47;16.70;99.90
314;DHT22;143;51.634;7.112;2022-10-24T06:52:12;16.70;99.90
314;DHT22;143;51.634;7.112;2022-10-24T06:54:38;16.80;99.90
314;DHT22;143;51.634;7.112;2022-10-24T06:57:05;16.80;99.90
314;DHT22;143;51.634;7.112;2022-10-24T06:59:31;16.80;99.90
314;DHT22;143;51.634;7.112;2022-10-24T07:01:57;16.80;99.90
314;DHT22;143;51.634;7.112;2022-10-24T07:04:23;16.80;99.90
314;DHT22;143;51.634;7.112;2022-10-24T07:06:49;16.80;99.90
314;DHT22;143;51.634;7.112;2022-10-24T07:09:15;16.90;99.90
314;DHT22;143;51.634;7.112;2022-10-24T07:11:42;16.80;99.90
314;DHT22;143;51.634;7.112;2022-10-24T07:14:08;16.80;99.90
314;DHT22;143;51.634;7.112;2022-10-24T07:16:34;16.90;99.90
314;DHT22;143;51.634;7.112;2022-10-24T07:19:01;16.90;99.90
314;DHT22;143;51.634;7.112;2022-10-24T07:21:29;16.90;99.90
314;DHT22;143;51.634;7.112;2022-10-24T07:23:55;16.90;99.90
314;DHT22;143;51.634;7.112;2022-10-24T07:26:22;16.90;99.90
314;DHT22;143;51.634;7.112;2022-10-24T07:28:49;16.90;99.90
314;DHT22;143;51.634;7.112;2022-10-24T07:31:19;16.90;99.90
314;DHT22;143;51.634;7.112;2022-10-24T07:33:45;17.00;99.90
314;DHT22;143;51.634;7.112;2022-10-24T07:36:16;17.00;99.90
314;DHT22;143;51.634;7.112;2022-10-24T07:38:42;17.00;99.90
314;DHT22;143;51.634;7.112;2022-10-24T07:41:08;17.00;99.90
314;DHT22;143;51.634;7.112;2022-10-24T07:43:34;17.00;99.90
314;DHT22;143;51.634;7.112;2022-10-24T07:46:03;17.00;99.90
314;DHT22;143;51.634;7.112;2022-10-24T07:48:29;17.00;99.90
314;DHT22;143;51.634;7.112;2022-10-24T07:50:55;17.00;99.90
314;DHT22;143;51.634;7.112;2022-10-24T07:53:20;17.00;99.90
314;DHT22;143;51.634;7.112;2022-10-24T07:55:46;17.00;99.90
314;DHT22;143;51.634;7.112;2022-10-24T07:58:12;17.00;99.90
314;DHT22;143;51.634;7.112;2022-10-24T08:00:38;17.00;99.90
314;DHT22;143;51.634;7.112;2022-10-24T08:03:04;17.00;99.90
314;DHT22;143;51.634;7.112;2022-10-24T08:05:29;17.00;99.90
314;DHT22;143;51.634;7.112;2022-10-24T08:07:56;17.00;99.90
314;DHT22;143;51.634;7.112;2022-10-24T08:10:21;17.00;99.90
314;DHT22;143;51.634;7.112;2022-10-24T08:12:47;17.00;99.90
314;DHT22;143;51.634;7.112;2022-10-24T08:15:13;17.10;99.90
314;DHT22;143;51.634;7.112;2022-10-24T08:17:38;17.10;99.90
314;DHT22;143;51.634;7.112;2022-10-24T08:20:05;17.10;99.90
314;DHT22;143;51.634;7.112;2022-10-24T08:22:32;17.10;99.90
314;DHT22;143;51.634;7.112;2022-10-24T08:25:01;17.10;99.90
314;DHT22;143;51.634;7.112;2022-10-24T08:27:27;17.10;99.90
314;DHT22;143;51.634;7.112;2022-10-24T08:29:53;17.10;99.90
314;DHT22;143;51.634;7.112;2022-10-24T08:32:19;17.10;99.90
314;DHT22;143;51.634;7.112;2022-10-24T08:34:45;17.10;99.90
314;DHT22;143;51.634;7.112;2022-10-24T08:37:10;17.10;99.90
314;DHT22;143;51.634;7.112;2022-10-24T08:39:37;17.10;99.90
314;DHT22;143;51.634;7.112;2022-10-24T08:42:05;17.10;99.90
314;DHT22;143;51.634;7.112;2022-10-24T08:44:38;17.10;99.90
314;DHT22;143;51.634;7.112;2022-10-24T08:52:32;17.10;99.90
314;DHT22;143;51.634;7.112;2022-10-24T08:55:04;17.10;99.90
314;DHT22;143;51.634;7.112;2022-10-24T08:57:34;17.20;99.90
314;DHT22;143;51.634;7.112;2022-10-24T09:00:24;17.20;99.90
314;DHT22;143;51.634;7.112;2022-10-24T09:03:00;17.20;99.90
314;DHT22;143;51.634;7.112;2022-10-24T09:05:32;17.30;99.90
314;DHT22;143;51.634;7.112;2022-10-24T09:08:09;17.30;99.90
314;DHT22;143;51.634;7.112;2022-10-24T09:10:45;17.40;99.90
314;DHT22;143;51.634;7.112;2022-10-24T09:13:14;17.50;99.90
314;DHT22;143;51.634;7.112;2022-10-24T09:15:41;17.50;99.90
314;DHT22;143;51.634;7.112;2022-10-24T09:18:25;17.60;99.90
314;DHT22;143;51.634;7.112;2022-10-24T09:20:52;17.60;99.90
314;DHT22;143;51.634;7.112;2022-10-24T09:23:20;17.50;99.90
314;DHT22;143;51.634;7.112;2022-10-24T09:25:52;17.50;99.90
314;DHT22;143;51.634;7.112;2022-10-24T09:28:19;17.40;99.90
314;DHT22;143;51.634;7.112;2022-10-24T09:30:45;17.40;99.90
314;DHT22;143;51.634;7.112;2022-10-24T09:33:30;17.40;99.90
314;DHT22;143;51.634;7.112;2022-10-24T09:36:00;17.60;99.90
314;DHT22;143;51.634;7.112;2022-10-24T09:38:32;17.60;99.90
314;DHT22;143;51.634;7.112;2022-10-24T09:41:19;17.70;99.90
314;DHT22;143;51.634;7.112;2022-10-24T09:51:37;17.60;99.90
314;DHT22;143;51.634;7.112;2022-10-24T09:56:53;17.50;99.90
314;DHT22;143;51.634;7.112;2022-10-24T09:59:59;17.30;99.90
314;DHT22;143;51.634;7.112;2022-10-24T10:02:26;17.20;99.90
314;DHT22;143;51.634;7.112;2022-10-24T10:05:17;17.20;99.90
314;DHT22;143;51.634;7.112;2022-10-24T10:07:44;17.20;99.90
314;DHT22;143;51.634;7.112;2022-10-24T10:10:33;17.20;99.90
314;DHT22;143;51.634;7.112;2022-10-24T10:18:02;17.40;99.90
314;DHT22;143;51.634;7.112;2022-10-24T10:20:38;17.60;99.90
314;DHT22;143;51.634;7.112;2022-10-24T10:23:27;17.50;99.90
314;DHT22;143;51.634;7.112;2022-10-24T10:26:19;17.60;99.90
314;DHT22;143;51.634;7.112;2022-10-24T10:29:00;17.60;99.90
314;DHT22;143;51.634;7.112;2022-10-24T10:31:38;17.70;99.90
314;DHT22;143;51.634;7.112;2022-10-24T10:34:20;17.90;99.90
314;DHT22;143;51.634;7.112;2022-10-24T10:40:06;17.90;99.90
314;DHT22;143;51.634;7.112;2022-10-24T10:45:40;17.90;99.90
314;DHT22;143;51.634;7.112;2022-10-24T10:56:44;18.40;99.90
314;DHT22;143;51.634;7.112;2022-10-24T11:02:57;18.70;99.90
314;DHT22;143;51.634;7.112;2022-10-24T11:11:14;18.60;99.90
314;DHT22;143;51.634;7.112;2022-10-24T11:14:09;18.60;99.90
314;DHT22;143;51.634;7.112;2022-10-24T11:16:37;18.60;99.90
314;DHT22;143;51.634;7.112;2022-10-24T11:19:28;18.70;99.90
314;DHT22;143;51.634;7.112;2022-10-24T11:21:56;18.80;99.90
314;DHT22;143;51.634;7.112;2022-10-24T11:24:25;18.90;99.90
314;DHT22;143;51.634;7.112;2022-10-24T11:27:11;18.90;99.90
314;DHT22;143;51.634;7.112;2022-10-24T11:30:07;19.00;99.90
314;DHT22;143;51.634;7.112;2022-10-24T11:32:53;19.00;99.90
314;DHT22;143;51.634;7.112;2022-10-24T11:35:32;19.00;99.90
314;DHT22;143;51.634;7.112;2022-10-24T11:38:11;18.80;99.90
314;DHT22;143;51.634;7.112;2022-10-24T11:40:39;18.60;99.90
314;DHT22;143;51.634;7.112;2022-10-24T11:43:29;18.50;99.90
314;DHT22;143;51.634;7.112;2022-10-24T11:46:12;18.40;99.90
314;DHT22;143;51.634;7.112;2022-10-24T11:48:57;18.50;99.90
314;DHT22;143;51.634;7.112;2022-10-24T11:51:35;18.70;99.90
314;DHT22;143;51.634;7.112;2022-10-24T11:54:12;19.00;99.90
314;DHT22;143;51.634;7.112;2022-10-24T11:59:19;19.30;99.90
314;DHT22;143;51.634;7.112;2022-10-24T12:04:37;19.10;99.90
314;DHT22;143;51.634;7.112;2022-10-24T12:20:13;18.30;99.90
314;DHT22;143;51.634;7.112;2022-10-24T12:22:42;18.20;99.90
314;DHT22;143;51.634;7.112;2022-10-24T12:27:44;18.00;99.90
314;DHT22;143;51.634;7.112;2022-10-24T12:30:17;18.00;99.90
314;DHT22;143;51.634;7.112;2022-10-24T12:32:46;18.00;99.90
314;DHT22;143;51.634;7.112;2022-10-24T12:35:33;17.90;99.90
314;DHT22;143;51.634;7.112;2022-10-24T12:38:01;17.80;99.90
314;DHT22;143;51.634;7.112;2022-10-24T12:43:40;17.80;99.90
314;DHT22;143;51.634;7.112;2022-10-24T12:48:41;17.70;99.90
314;DHT22;143;51.634;7.112;2022-10-24T13:01:45;17.80;99.90
314;DHT22;143;51.634;7.112;2022-10-24T13:07:17;17.80;99.90
314;DHT22;143;51.634;7.112;2022-10-24T13:16:01;17.90;99.90
314;DHT22;143;51.634;7.112;2022-10-24T13:23:51;18.00;99.90
314;DHT22;143;51.634;7.112;2022-10-24T13:26:43;18.00;99.90
314;DHT22;143;51.634;7.112;2022-10-24T13:34:43;17.90;99.90
314;DHT22;143;51.634;7.112;2022-10-24T13:39:44;17.90;99.90
314;DHT22;143;51.634;7.112;2022-10-24T13:42:33;17.90;99.90
314;DHT22;143;51.634;7.112;2022-10-24T13:45:04;17.90;99.90
314;DHT22;143;51.634;7.112;2022-10-24T13:47:35;17.80;99.90
314;DHT22;143;51.634;7.112;2022-10-24T13:52:46;17.70;99.90
314;DHT22;143;51.634;7.112;2022-10-24T13:55:24;17.60;99.90
314;DHT22;143;51.634;7.112;2022-10-24T13:57:58;17.60;99.90
314;DHT22;143;51.634;7.112;2022-10-24T14:00:31;17.70;99.90
314;DHT22;143;51.634;7.112;2022-10-24T14:02:58;17.60;99.90
314;DHT22;143;51.634;7.112;2022-10-24T14:05:47;17.60;99.90
314;DHT22;143;51.634;7.112;2022-10-24T14:08:26;17.50;99.90
314;DHT22;143;51.634;7.112;2022-10-24T14:10:53;17.60;99.90
314;DHT22;143;51.634;7.112;2022-10-24T14:13:21;17.50;1.00
314;DHT22;143;51.634;7.112;2022-10-24T14:15:59;17.50;1.00
314;DHT22;143;51.634;7.112;2022-10-24T14:18:26;17.50;1.00
314;DHT22;143;51.634;7.112;2022-10-24T14:20:57;17.40;1.00
314;DHT22;143;51.634;7.112;2022-10-24T14:26:14;17.40;1.00
314;DHT22;143;51.634;7.112;2022-10-24T14:28:47;17.30;1.00
314;DHT22;143;51.634;7.112;2022-10-24T14:31:29;17.20;1.00
314;DHT22;143;51.634;7.112;2022-10-24T14:33:56;17.10;1.00
314;DHT22;143;51.634;7.112;2022-10-24T14:36:28;17.00;1.00
314;DHT22;143;51.634;7.112;2022-10-24T14:38:56;16.90;1.00
314;DHT22;143;51.634;7.112;2022-10-24T14:41:28;16.70;1.00
314;DHT22;143;51.634;7.112;2022-10-24T14:43:56;16.60;1.00
314;DHT22;143;51.634;7.112;2022-10-24T14:46:39;16.60;1.00
314;DHT22;143;51.634;7.112;2022-10-24T14:51:46;16.40;1.00
314;DHT22;143;51.634;7.112;2022-10-24T14:54:20;16.30;1.00
314;DHT22;143;51.634;7.112;2022-10-24T14:56:46;16.20;1.00
314;DHT22;143;51.634;7.112;2022-10-24T14:59:26;16.20;1.00
314;DHT22;143;51.634;7.112;2022-10-24T15:02:05;16.00;1.00
314;DHT22;143;51.634;7.112;2022-10-24T15:04:38;15.80;1.00
314;DHT22;143;51.634;7.112;2022-10-24T15:07:25;15.70;1.00
314;DHT22;143;51.634;7.112;2022-10-24T15:09:56;15.60;1.00
314;DHT22;143;51.634;7.112;2022-10-24T15:12:30;15.60;1.00
314;DHT22;143;51.634;7.112;2022-10-24T15:15:16;15.50;1.00
314;DHT22;143;51.634;7.112;2022-10-24T15:17:42;15.50;1.00
314;DHT22;143;51.634;7.112;2022-10-24T15:20:15;15.40;1.00
314;DHT22;143;51.634;7.112;2022-10-24T15:22:49;15.40;1.00
314;DHT22;143;51.634;7.112;2022-10-24T15:25:22;15.40;1.00
314;DHT22;143;51.634;7.112;2022-10-24T15:27:49;15.30;1.00
314;DHT22;143;51.634;7.112;2022-10-24T15:30:21;15.30;1.00
314;DHT22;143;51.634;7.112;2022-10-24T15:32:48;15.30;1.00
314;DHT22;143;51.634;7.112;2022-10-24T15:35:15;15.30;1.00
314;DHT22;143;51.634;7.112;2022-10-24T15:37:56;15.30;1.00
314;DHT22;143;51.634;7.112;2022-10-24T15:40:32;15.20;1.00
314;DHT22;143;51.634;7.112;2022-10-24T15:42:59;15.20;1.00
314;DHT22;143;51.634;7.112;2022-10-24T15:45:25;15.20;1.00
314;DHT22;143;51.634;7.112;2022-10-24T15:47:51;15.20;1.00
314;DHT22;143;51.634;7.112;2022-10-24T15:50:20;15.20;1.00
314;DHT22;143;51.634;7.112;2022-10-24T15:52:51;15.20;1.00
314;DHT22;143;51.634;7.112;2022-10-24T15:55:23;15.20;1.00
314;DHT22;143;51.634;7.112;2022-10-24T15:57:49;15.20;1.00
314;DHT22;143;51.634;7.112;2022-10-24T16:00:18;15.20;1.00
314;DHT22;143;51.634;7.112;2022-10-24T16:02:45;15.10;1.00
314;DHT22;143;51.634;7.112;2022-10-24T16:05:37;15.10;1.00
314;DHT22;143;51.634;7.112;2022-10-24T16:08:02;15.10;1.00
314;DHT22;143;51.634;7.112;2022-10-24T16:10:28;15.10;1.00
314;DHT22;143;51.634;7.112;2022-10-24T16:12:54;15.20;1.00
314;DHT22;143;51.634;7.112;2022-10-24T16:15:26;15.20;1.00
314;DHT22;143;51.634;7.112;2022-10-24T16:17:52;15.20;1.00
314;DHT22;143;51.634;7.112;2022-10-24T16:20:18;15.20;1.00
314;DHT22;143;51.634;7.112;2022-10-24T16:22:45;15.20;1.00
314;DHT22;143;51.634;7.112;2022-10-24T16:25:23;15.20;1.00
314;DHT22;143;51.634;7.112;2022-10-24T16:27:50;15.10;1.00
314;DHT22;143;51.634;7.112;2022-10-24T16:30:18;15.10;1.00
314;DHT22;143;51.634;7.112;2022-10-24T16:32:44;15.10;1.00
314;DHT22;143;51.634;7.112;2022-10-24T16:35:16;15.10;1.00
314;DHT22;143;51.634;7.112;2022-10-24T16:37:42;15.20;1.00
314;DHT22;143;51.634;7.112;2022-10-24T16:40:07;15.20;1.00
314;DHT22;143;51.634;7.112;2022-10-24T16:42:33;15.20;1.00
314;DHT22;143;51.634;7.112;2022-10-24T16:44:59;15.30;1.00
314;DHT22;143;51.634;7.112;2022-10-24T16:47:27;15.30;1.00
314;DHT22;143;51.634;7.112;2022-10-24T16:49:57;15.20;1.00
314;DHT22;143;51.634;7.112;2022-10-24T16:52:23;15.20;1.00
314;DHT22;143;51.634;7.112;2022-10-24T16:54:49;15.30;1.00
314;DHT22;143;51.634;7.112;2022-10-24T16:57:15;15.20;1.00
314;DHT22;143;51.634;7.112;2022-10-24T16:59:41;15.30;1.00
314;DHT22;143;51.634;7.112;2022-10-24T17:02:06;15.30;1.00
314;DHT22;143;51.634;7.112;2022-10-24T17:04:34;15.30;1.00
314;DHT22;143;51.634;7.112;2022-10-24T17:07:00;15.30;1.00
314;DHT22;143;51.634;7.112;2022-10-24T17:09:25;15.30;1.00
314;DHT22;143;51.634;7.112;2022-10-24T17:11:51;15.30;1.00
314;DHT22;143;51.634;7.112;2022-10-24T17:14:18;15.30;1.00
314;DHT22;143;51.634;7.112;2022-10-24T17:16:43;15.30;1.00
314;DHT22;143;51.634;7.112;2022-10-24T17:19:09;15.30;1.00
314;DHT22;143;51.634;7.112;2022-10-24T17:21:35;15.30;1.00
314;DHT22;143;51.634;7.112;2022-10-24T17:24:01;15.30;1.00
314;DHT22;143;51.634;7.112;2022-10-24T17:26:27;15.30;1.00
314;DHT22;143;51.634;7.112;2022-10-24T17:28:53;15.30;1.00
314;DHT22;143;51.634;7.112;2022-10-24T17:31:19;15.30;1.00
314;DHT22;143;51.634;7.112;2022-10-24T17:33:44;15.30;1.00
314;DHT22;143;51.634;7.112;2022-10-24T17:36:19;15.30;1.00
314;DHT22;143;51.634;7.112;2022-10-24T17:38:54;15.30;1.00
314;DHT22;143;51.634;7.112;2022-10-24T17:41:27;15.30;1.00
314;DHT22;143;51.634;7.112;2022-10-24T17:43:55;15.30;1.00
314;DHT22;143;51.634;7.112;2022-10-24T17:46:21;15.20;1.00
314;DHT22;143;51.634;7.112;2022-10-24T17:48:47;15.20;1.00
314;DHT22;143;51.634;7.112;2022-10-24T17:51:18;15.30;1.00
314;DHT22;143;51.634;7.112;2022-10-24T17:53:44;15.30;1.00
314;DHT22;143;51.634;7.112;2022-10-24T17:56:11;15.20;1.00
314;DHT22;143;51.634;7.112;2022-10-24T17:58:37;15.30;1.00
314;DHT22;143;51.634;7.112;2022-10-24T18:01:03;15.20;1.00
314;DHT22;143;51.634;7.112;2022-10-24T18:03:29;15.20;1.00
314;DHT22;143;51.634;7.112;2022-10-24T18:05:59;15.20;1.00
314;DHT22;143;51.634;7.112;2022-10-24T18:08:25;15.20;1.00
314;DHT22;143;51.634;7.112;2022-10-24T18:10:51;15.20;1.00
314;DHT22;143;51.634;7.112;2022-10-24T18:13:16;15.20;1.00
314;DHT22;143;51.634;7.112;2022-10-24T18:15:42;15.20;1.00
314;DHT22;143;51.634;7.112;2022-10-24T18:18:08;15.10;1.00
314;DHT22;143;51.634;7.112;2022-10-24T18:20:34;15.10;1.00
314;DHT22;143;51.634;7.112;2022-10-24T18:23:00;15.20;1.00
314;DHT22;143;51.634;7.112;2022-10-24T18:25:26;15.10;1.00
314;DHT22;143;51.634;7.112;2022-10-24T18:27:52;15.10;1.00
314;DHT22;143;51.634;7.112;2022-10-24T18:30:18;15.10;1.00
314;DHT22;143;51.634;7.112;2022-10-24T18:32:44;15.00;1.00
314;DHT22;143;51.634;7.112;2022-10-24T18:35:10;15.00;1.00
314;DHT22;143;51.634;7.112;2022-10-24T18:37:36;15.00;1.00
314;DHT22;143;51.634;7.112;2022-10-24T18:40:04;15.00;1.00
314;DHT22;143;51.634;7.112;2022-10-24T18:42:54;15.00;1.00
314;DHT22;143;51.634;7.112;2022-10-24T18:45:24;14.90;1.00
314;DHT22;143;51.634;7.112;2022-10-24T18:47:50;14.90;1.00
314;DHT22;143;51.634;7.112;2022-10-24T18:50:19;14.90;1.00
314;DHT22;143;51.634;7.112;2022-10-24T18:55:19;14.90;1.00
314;DHT22;143;51.634;7.112;2022-10-24T18:57:47;14.90;1.00
314;DHT22;143;51.634;7.112;2022-10-24T19:00:15;14.90;1.00
314;DHT22;143;51.634;7.112;2022-10-24T19:06:22;14.80;1.00
314;DHT22;143;51.634;7.112;2022-10-24T19:08:49;14.80;1.00
314;DHT22;143;51.634;7.112;2022-10-24T19:11:15;14.70;1.00